SVA1048 OEJN-OERK
Flight info
| Callsign | SVA1048 |
|---|---|
| Flight time | 1h 9m |
| Altitude | 35000 |
| Route | EGREP T532 ORDEM |
| Aircraft | B77W/H-SDE1E2E3FGHIJ2J3J4J5M1RWXY/LB1D1 |
Departure
| Time | 2026-05-06 13:35 |
|---|---|
| Airport | King Abdulaziz International Airport (OEJN) |
Arrival
| Time | 2026-05-06 14:45 |
|---|---|
| Airport | King Khalid International Airport (OERK) |
| Time | Latitude | Longitude | Altitude | Speed | Heading |
|---|---|---|---|---|---|
| 2026-05-06 13:09 | 21.66693 | 39.17241 | 40 ft | 0 kts | 250° |
| 2026-05-06 13:27 | 21.66697 | 39.17250 | 40 ft | 4 kts | 250° |
| 2026-05-06 13:28 | 21.66706 | 39.17278 | 37 ft | 4 kts | 250° |
| 2026-05-06 13:28 | 21.66714 | 39.17303 | 36 ft | 3 kts | 250° |
| 2026-05-06 13:28 | 21.66727 | 39.17323 | 37 ft | 4 kts | 195° |
| 2026-05-06 13:28 | 21.66751 | 39.17322 | 35 ft | 4 kts | 161° |
| 2026-05-06 13:29 | 21.66768 | 39.17316 | 38 ft | 1 kts | 160° |
| 2026-05-06 13:29 | 21.66770 | 39.17315 | 37 ft | 0 kts | 160° |
| 2026-05-06 13:31 | 21.66752 | 39.17322 | 35 ft | 5 kts | 160° |
| 2026-05-06 13:31 | 21.66681 | 39.17350 | 40 ft | 15 kts | 160° |
| 2026-05-06 13:32 | 21.66580 | 39.17389 | 40 ft | 15 kts | 159° |
| 2026-05-06 13:32 | 21.66502 | 39.17462 | 41 ft | 15 kts | 121° |
| 2026-05-06 13:32 | 21.66509 | 39.17573 | 41 ft | 15 kts | 72° |
| 2026-05-06 13:32 | 21.66544 | 39.17685 | 41 ft | 17 kts | 70° |
| 2026-05-06 13:33 | 21.66586 | 39.17804 | 41 ft | 17 kts | 69° |
| 2026-05-06 13:33 | 21.66628 | 39.17923 | 41 ft | 17 kts | 69° |
| 2026-05-06 13:33 | 21.66657 | 39.18000 | 42 ft | 7 kts | 58° |
| 2026-05-06 13:33 | 21.66670 | 39.18013 | 42 ft | 3 kts | 36° |
| 2026-05-06 13:34 | 21.66707 | 39.18017 | 42 ft | 6 kts | 354° |
| 2026-05-06 13:34 | 21.66741 | 39.18009 | 41 ft | 0 kts | 340° |
| 2026-05-06 13:35 | 21.66861 | 39.17963 | 42 ft | 50 kts | 340° |
| 2026-05-06 13:35 | 21.67458 | 39.17728 | 37 ft | 129 kts | 340° |
| 2026-05-06 13:35 | 21.68491 | 39.17324 | 118 ft | 178 kts | 340° |
| 2026-05-06 13:35 | 21.69656 | 39.16871 | 854 ft | 181 kts | 338° |
| 2026-05-06 13:36 | 21.70885 | 39.16387 | 1487 ft | 194 kts | 339° |
| 2026-05-06 13:36 | 21.72149 | 39.15864 | 2264 ft | 195 kts | 339° |
| 2026-05-06 13:36 | 21.73460 | 39.15298 | 2829 ft | 210 kts | 338° |
| 2026-05-06 13:36 | 21.74863 | 39.14722 | 3322 ft | 226 kts | 343° |
| 2026-05-06 13:37 | 21.76504 | 39.14610 | 3509 ft | 258 kts | 10° |
| 2026-05-06 13:37 | 21.78170 | 39.15456 | 4056 ft | 274 kts | 37° |
| 2026-05-06 13:37 | 21.79616 | 39.16809 | 4808 ft | 275 kts | 41° |
| 2026-05-06 13:37 | 21.81036 | 39.18194 | 5511 ft | 278 kts | 42° |
| 2026-05-06 13:38 | 21.82489 | 39.19610 | 6314 ft | 284 kts | 43° |
| 2026-05-06 13:38 | 21.83975 | 39.21053 | 7018 ft | 292 kts | 43° |
| 2026-05-06 13:38 | 21.85511 | 39.22537 | 7739 ft | 299 kts | 43° |
| 2026-05-06 13:38 | 21.87071 | 39.24039 | 8572 ft | 302 kts | 43° |
| 2026-05-06 13:39 | 21.88642 | 39.25546 | 9383 ft | 306 kts | 43° |
| 2026-05-06 13:39 | 21.90241 | 39.27079 | 10100 ft | 311 kts | 43° |
| 2026-05-06 13:39 | 21.91860 | 39.28632 | 10642 ft | 326 kts | 43° |
| 2026-05-06 13:39 | 21.93636 | 39.30327 | 10807 ft | 356 kts | 41° |
| 2026-05-06 13:40 | 21.95706 | 39.31965 | 11028 ft | 382 kts | 33° |
| 2026-05-06 13:40 | 21.98042 | 39.33499 | 11688 ft | 392 kts | 31° |
| 2026-05-06 13:40 | 22.00281 | 39.35152 | 12440 ft | 400 kts | 39° |
| 2026-05-06 13:40 | 22.02356 | 39.37181 | 13376 ft | 404 kts | 45° |
| 2026-05-06 13:41 | 22.04382 | 39.39318 | 14181 ft | 411 kts | 45° |
| 2026-05-06 13:41 | 22.06436 | 39.41496 | 15008 ft | 417 kts | 45° |
| 2026-05-06 13:41 | 22.08534 | 39.43715 | 15837 ft | 423 kts | 45° |
| 2026-05-06 13:41 | 22.10654 | 39.45947 | 16694 ft | 429 kts | 45° |
| 2026-05-06 13:42 | 22.12806 | 39.48203 | 17542 ft | 434 kts | 45° |
| 2026-05-06 13:42 | 22.14962 | 39.50459 | 18340 ft | 441 kts | 45° |
| 2026-05-06 13:42 | 22.17179 | 39.52779 | 19061 ft | 446 kts | 45° |
| 2026-05-06 13:42 | 22.19418 | 39.55133 | 19782 ft | 452 kts | 44° |
| 2026-05-06 13:43 | 22.21683 | 39.57513 | 20490 ft | 458 kts | 44° |
| 2026-05-06 13:43 | 22.23979 | 39.59922 | 21228 ft | 462 kts | 44° |
| 2026-05-06 13:43 | 22.26303 | 39.62353 | 21940 ft | 467 kts | 44° |
| 2026-05-06 13:43 | 22.28651 | 39.64808 | 22629 ft | 473 kts | 44° |
| 2026-05-06 13:44 | 22.31029 | 39.67292 | 23310 ft | 478 kts | 43° |
| 2026-05-06 13:44 | 22.33433 | 39.69806 | 23864 ft | 484 kts | 43° |
| 2026-05-06 13:44 | 22.35869 | 39.72354 | 24357 ft | 490 kts | 43° |
| 2026-05-06 13:44 | 22.38329 | 39.74930 | 24890 ft | 495 kts | 43° |
| 2026-05-06 13:45 | 22.40818 | 39.77538 | 25437 ft | 500 kts | 43° |
| 2026-05-06 13:45 | 22.45863 | 39.82828 | 26483 ft | 510 kts | 43° |
| 2026-05-06 13:45 | 22.48408 | 39.85451 | 26991 ft | 514 kts | 41° |
| 2026-05-06 13:46 | 22.51082 | 39.88049 | 27444 ft | 519 kts | 39° |
| 2026-05-06 13:46 | 22.53826 | 39.90632 | 27878 ft | 525 kts | 39° |
| 2026-05-06 13:46 | 22.56604 | 39.93221 | 28325 ft | 530 kts | 39° |
| 2026-05-06 13:46 | 22.59415 | 39.95849 | 28786 ft | 535 kts | 39° |
| 2026-05-06 13:47 | 22.62233 | 39.98505 | 29248 ft | 539 kts | 39° |
| 2026-05-06 13:47 | 22.65066 | 40.01197 | 29710 ft | 543 kts | 39° |
| 2026-05-06 13:47 | 22.67906 | 40.03910 | 30119 ft | 547 kts | 39° |
| 2026-05-06 13:47 | 22.70774 | 40.06660 | 30447 ft | 552 kts | 39° |
| 2026-05-06 13:48 | 22.73669 | 40.09437 | 30708 ft | 557 kts | 39° |
| 2026-05-06 13:48 | 22.76577 | 40.12229 | 31049 ft | 559 kts | 39° |
| 2026-05-06 13:48 | 22.79489 | 40.15025 | 31476 ft | 560 kts | 39° |
| 2026-05-06 13:48 | 22.82403 | 40.17823 | 31916 ft | 560 kts | 39° |
| 2026-05-06 13:49 | 22.85324 | 40.20628 | 32336 ft | 561 kts | 39° |
| 2026-05-06 13:49 | 22.88215 | 40.23404 | 32722 ft | 562 kts | 39° |
| 2026-05-06 13:49 | 22.91147 | 40.26222 | 33080 ft | 564 kts | 39° |
| 2026-05-06 13:49 | 22.94089 | 40.29051 | 33408 ft | 566 kts | 39° |
| 2026-05-06 13:50 | 22.97038 | 40.31888 | 33824 ft | 566 kts | 39° |
| 2026-05-06 13:50 | 22.99986 | 40.34727 | 34215 ft | 566 kts | 39° |
| 2026-05-06 13:50 | 23.02929 | 40.37563 | 34639 ft | 564 kts | 39° |
| 2026-05-06 13:50 | 23.05863 | 40.40393 | 34997 ft | 564 kts | 39° |
| 2026-05-06 13:51 | 23.11721 | 40.46045 | 34992 ft | 567 kts | 40° |
| 2026-05-06 13:51 | 23.17584 | 40.51712 | 34957 ft | 560 kts | 40° |
| 2026-05-06 13:52 | 23.23362 | 40.57348 | 34960 ft | 555 kts | 44° |
| 2026-05-06 13:52 | 23.28137 | 40.63931 | 34988 ft | 556 kts | 59° |
| 2026-05-06 13:53 | 23.31473 | 40.71541 | 34977 ft | 565 kts | 72° |
| 2026-05-06 13:53 | 23.34158 | 40.79573 | 34963 ft | 564 kts | 73° |
| 2026-05-06 13:54 | 23.36835 | 40.87583 | 34965 ft | 563 kts | 72° |
| 2026-05-06 13:54 | 23.39580 | 40.95569 | 34956 ft | 562 kts | 72° |
| 2026-05-06 13:55 | 23.42309 | 41.03430 | 34969 ft | 560 kts | 72° |
| 2026-05-06 13:55 | 23.45061 | 41.11379 | 34965 ft | 560 kts | 72° |
| 2026-05-06 13:56 | 23.47781 | 41.19272 | 34965 ft | 560 kts | 72° |
| 2026-05-06 13:56 | 23.50517 | 41.27232 | 34967 ft | 560 kts | 72° |
| 2026-05-06 13:57 | 23.53245 | 41.35183 | 34971 ft | 560 kts | 72° |
| 2026-05-06 13:57 | 23.55973 | 41.43148 | 34969 ft | 561 kts | 72° |
| 2026-05-06 13:58 | 23.58697 | 41.51117 | 34969 ft | 562 kts | 72° |
| 2026-05-06 13:58 | 23.61424 | 41.59112 | 34947 ft | 562 kts | 72° |
| 2026-05-06 13:59 | 23.64132 | 41.67062 | 34960 ft | 561 kts | 72° |
| 2026-05-06 13:59 | 23.66843 | 41.75037 | 34967 ft | 561 kts | 72° |
| 2026-05-06 14:00 | 23.69448 | 41.83060 | 34958 ft | 560 kts | 73° |
| 2026-05-06 14:00 | 23.71944 | 41.91099 | 34966 ft | 560 kts | 73° |
| 2026-05-06 14:01 | 23.74472 | 41.99134 | 34952 ft | 560 kts | 73° |
| 2026-05-06 14:01 | 23.77103 | 42.07019 | 34968 ft | 559 kts | 71° |
| 2026-05-06 14:02 | 23.79844 | 42.14913 | 34962 ft | 559 kts | 71° |
| 2026-05-06 14:02 | 23.82583 | 42.22861 | 34971 ft | 558 kts | 71° |
| 2026-05-06 14:03 | 23.85291 | 42.30817 | 34974 ft | 557 kts | 72° |
| 2026-05-06 14:03 | 23.87979 | 42.38755 | 34979 ft | 557 kts | 72° |
| 2026-05-06 14:04 | 23.90664 | 42.46692 | 34980 ft | 557 kts | 72° |
| 2026-05-06 14:04 | 23.93349 | 42.54636 | 34979 ft | 557 kts | 72° |
| 2026-05-06 14:05 | 23.96037 | 42.62606 | 34982 ft | 558 kts | 72° |
| 2026-05-06 14:05 | 23.98265 | 42.69221 | 34989 ft | 557 kts | 72° |
| 2026-05-06 14:06 | 24.01376 | 42.78481 | 34995 ft | 557 kts | 72° |
| 2026-05-06 14:06 | 24.03596 | 42.85102 | 34987 ft | 558 kts | 72° |
| 2026-05-06 14:07 | 24.06715 | 42.94455 | 34986 ft | 559 kts | 72° |
| 2026-05-06 14:07 | 24.08872 | 43.01002 | 34987 ft | 559 kts | 72° |
| 2026-05-06 14:08 | 24.11501 | 43.09009 | 34988 ft | 558 kts | 72° |
| 2026-05-06 14:08 | 24.14132 | 43.17025 | 34988 ft | 559 kts | 72° |
| 2026-05-06 14:09 | 24.16763 | 43.25049 | 34971 ft | 559 kts | 72° |
| 2026-05-06 14:09 | 24.19372 | 43.33020 | 34983 ft | 559 kts | 72° |
| 2026-05-06 14:10 | 24.21995 | 43.41053 | 34982 ft | 559 kts | 72° |
| 2026-05-06 14:10 | 24.24604 | 43.49058 | 34979 ft | 558 kts | 72° |
| 2026-05-06 14:11 | 24.27210 | 43.57060 | 34967 ft | 556 kts | 72° |
| 2026-05-06 14:11 | 24.29786 | 43.65004 | 34973 ft | 555 kts | 73° |
| 2026-05-06 14:12 | 24.32367 | 43.72975 | 34973 ft | 553 kts | 73° |
| 2026-05-06 14:12 | 24.34937 | 43.80924 | 34980 ft | 552 kts | 73° |
| 2026-05-06 14:13 | 24.37503 | 43.88879 | 34973 ft | 553 kts | 73° |
| 2026-05-06 14:13 | 24.40064 | 43.96833 | 34983 ft | 553 kts | 73° |
| 2026-05-06 14:14 | 24.42580 | 44.04662 | 34967 ft | 553 kts | 72° |
| 2026-05-06 14:14 | 24.45023 | 44.12654 | 34977 ft | 551 kts | 77° |
| 2026-05-06 14:15 | 24.46563 | 44.20873 | 34976 ft | 548 kts | 83° |
| 2026-05-06 14:15 | 24.47886 | 44.29064 | 34970 ft | 547 kts | 83° |
| 2026-05-06 14:16 | 24.49273 | 44.37278 | 34973 ft | 547 kts | 83° |
| 2026-05-06 14:16 | 24.50690 | 44.45484 | 34972 ft | 546 kts | 82° |
| 2026-05-06 14:17 | 24.52093 | 44.53659 | 34972 ft | 544 kts | 82° |
| 2026-05-06 14:17 | 24.53501 | 44.61823 | 34970 ft | 542 kts | 82° |
| 2026-05-06 14:18 | 24.54191 | 44.65808 | 34953 ft | 530 kts | 83° |
| 2026-05-06 14:18 | 24.54872 | 44.69745 | 34947 ft | 520 kts | 83° |
| 2026-05-06 14:18 | 24.56209 | 44.77550 | 34970 ft | 520 kts | 83° |
| 2026-05-06 14:19 | 24.57535 | 44.85327 | 34483 ft | 514 kts | 83° |
| 2026-05-06 14:19 | 24.58193 | 44.89186 | 34051 ft | 511 kts | 83° |
| 2026-05-06 14:19 | 24.58844 | 44.93008 | 33582 ft | 507 kts | 83° |
| 2026-05-06 14:20 | 24.59482 | 44.96761 | 33134 ft | 503 kts | 83° |
| 2026-05-06 14:20 | 24.60103 | 45.00431 | 32658 ft | 500 kts | 83° |
| 2026-05-06 14:20 | 24.60734 | 45.04171 | 32220 ft | 496 kts | 83° |
| 2026-05-06 14:20 | 24.61358 | 45.07882 | 31797 ft | 492 kts | 83° |
| 2026-05-06 14:21 | 24.61978 | 45.11574 | 31394 ft | 488 kts | 83° |
| 2026-05-06 14:21 | 24.62590 | 45.15222 | 30994 ft | 484 kts | 82° |
| 2026-05-06 14:21 | 24.63197 | 45.18855 | 30599 ft | 480 kts | 82° |
| 2026-05-06 14:21 | 24.63797 | 45.22441 | 30220 ft | 475 kts | 82° |
| 2026-05-06 14:22 | 24.64392 | 45.26008 | 29833 ft | 471 kts | 82° |
| 2026-05-06 14:22 | 24.64982 | 45.29546 | 29388 ft | 467 kts | 82° |
| 2026-05-06 14:22 | 24.65558 | 45.33004 | 28967 ft | 463 kts | 82° |
| 2026-05-06 14:22 | 24.66135 | 45.36476 | 28568 ft | 459 kts | 82° |
| 2026-05-06 14:23 | 24.66705 | 45.39908 | 28194 ft | 454 kts | 82° |
| 2026-05-06 14:23 | 24.67267 | 45.43301 | 27873 ft | 448 kts | 82° |
| 2026-05-06 14:23 | 24.67823 | 45.46658 | 27499 ft | 444 kts | 83° |
| 2026-05-06 14:23 | 24.68372 | 45.49984 | 27086 ft | 440 kts | 83° |
| 2026-05-06 14:24 | 24.68916 | 45.53283 | 26694 ft | 437 kts | 83° |
| 2026-05-06 14:24 | 24.69455 | 45.56558 | 26322 ft | 433 kts | 83° |
| 2026-05-06 14:24 | 24.69989 | 45.59808 | 26000 ft | 428 kts | 83° |
| 2026-05-06 14:24 | 24.70515 | 45.63006 | 25727 ft | 422 kts | 83° |
| 2026-05-06 14:25 | 24.71035 | 45.66173 | 25378 ft | 418 kts | 83° |
| 2026-05-06 14:25 | 24.71545 | 45.69303 | 25004 ft | 416 kts | 83° |
| 2026-05-06 14:25 | 24.72042 | 45.72425 | 24652 ft | 412 kts | 83° |
| 2026-05-06 14:25 | 24.72523 | 45.75489 | 24318 ft | 409 kts | 83° |
| 2026-05-06 14:26 | 24.73004 | 45.78559 | 23998 ft | 405 kts | 83° |
| 2026-05-06 14:26 | 24.73480 | 45.81591 | 23721 ft | 400 kts | 83° |
| 2026-05-06 14:26 | 24.73950 | 45.84588 | 23382 ft | 396 kts | 83° |
| 2026-05-06 14:26 | 24.74416 | 45.87567 | 22950 ft | 394 kts | 83° |
| 2026-05-06 14:27 | 24.74881 | 45.90534 | 22504 ft | 393 kts | 83° |
| 2026-05-06 14:27 | 24.75343 | 45.93489 | 22081 ft | 391 kts | 83° |
| 2026-05-06 14:27 | 24.75803 | 45.96434 | 21662 ft | 390 kts | 83° |
| 2026-05-06 14:27 | 24.76261 | 45.99368 | 21268 ft | 388 kts | 83° |
| 2026-05-06 14:28 | 24.76703 | 46.02200 | 20913 ft | 385 kts | 82° |
| 2026-05-06 14:28 | 24.77153 | 46.05087 | 20541 ft | 383 kts | 82° |
| 2026-05-06 14:28 | 24.77602 | 46.07971 | 20171 ft | 381 kts | 82° |
| 2026-05-06 14:28 | 24.78046 | 46.10837 | 19799 ft | 380 kts | 82° |
| 2026-05-06 14:29 | 24.78490 | 46.13697 | 19432 ft | 378 kts | 82° |
| 2026-05-06 14:29 | 24.78930 | 46.16543 | 19072 ft | 377 kts | 82° |
| 2026-05-06 14:29 | 24.79363 | 46.19340 | 18771 ft | 373 kts | 82° |
| 2026-05-06 14:29 | 24.79796 | 46.22138 | 18505 ft | 369 kts | 83° |
| 2026-05-06 14:30 | 24.80222 | 46.24899 | 18236 ft | 365 kts | 83° |
| 2026-05-06 14:30 | 24.80645 | 46.27647 | 17850 ft | 363 kts | 83° |
| 2026-05-06 14:30 | 24.81064 | 46.30379 | 17451 ft | 362 kts | 83° |
| 2026-05-06 14:30 | 24.81488 | 46.33139 | 17068 ft | 360 kts | 83° |
| 2026-05-06 14:31 | 24.81903 | 46.35841 | 16739 ft | 357 kts | 83° |
| 2026-05-06 14:31 | 24.82309 | 46.38498 | 16366 ft | 355 kts | 83° |
| 2026-05-06 14:31 | 24.82718 | 46.41174 | 16027 ft | 353 kts | 83° |
| 2026-05-06 14:31 | 24.83124 | 46.43828 | 15688 ft | 351 kts | 83° |
| 2026-05-06 14:32 | 24.83528 | 46.46470 | 15346 ft | 349 kts | 83° |
| 2026-05-06 14:32 | 24.83931 | 46.49096 | 15011 ft | 347 kts | 83° |
| 2026-05-06 14:32 | 24.84349 | 46.51708 | 14691 ft | 346 kts | 82° |
| 2026-05-06 14:32 | 24.84711 | 46.54306 | 14325 ft | 339 kts | 91° |
| 2026-05-06 14:33 | 24.84374 | 46.56845 | 13881 ft | 334 kts | 114° |
| 2026-05-06 14:33 | 24.83264 | 46.59036 | 13636 ft | 324 kts | 128° |
| 2026-05-06 14:33 | 24.81915 | 46.60996 | 13421 ft | 317 kts | 131° |
| 2026-05-06 14:33 | 24.80556 | 46.62852 | 13346 ft | 306 kts | 131° |
| 2026-05-06 14:34 | 24.79248 | 46.64612 | 13259 ft | 295 kts | 132° |
| 2026-05-06 14:34 | 24.77967 | 46.66336 | 13148 ft | 286 kts | 132° |
| 2026-05-06 14:34 | 24.76722 | 46.68009 | 13002 ft | 279 kts | 133° |
| 2026-05-06 14:34 | 24.75462 | 46.69599 | 12789 ft | 274 kts | 134° |
| 2026-05-06 14:35 | 24.74195 | 46.71152 | 12522 ft | 271 kts | 135° |
| 2026-05-06 14:35 | 24.72949 | 46.72678 | 12312 ft | 266 kts | 135° |
| 2026-05-06 14:35 | 24.71706 | 46.74184 | 11993 ft | 266 kts | 138° |
| 2026-05-06 14:35 | 24.70332 | 46.75543 | 11615 ft | 266 kts | 143° |
| 2026-05-06 14:36 | 24.68899 | 46.76828 | 11331 ft | 264 kts | 143° |
| 2026-05-06 14:36 | 24.67479 | 46.78083 | 11073 ft | 261 kts | 144° |
| 2026-05-06 14:36 | 24.66060 | 46.79335 | 10692 ft | 263 kts | 144° |
| 2026-05-06 14:36 | 24.64631 | 46.80596 | 10345 ft | 263 kts | 144° |
| 2026-05-06 14:37 | 24.63209 | 46.81854 | 10034 ft | 261 kts | 143° |
| 2026-05-06 14:37 | 24.62062 | 46.83401 | 9587 ft | 268 kts | 118° |
| 2026-05-06 14:37 | 24.61706 | 46.85401 | 9185 ft | 277 kts | 89° |
| 2026-05-06 14:37 | 24.62247 | 46.87443 | 8804 ft | 283 kts | 61° |
| 2026-05-06 14:38 | 24.63591 | 46.89025 | 8395 ft | 286 kts | 32° |
| 2026-05-06 14:38 | 24.65427 | 46.89756 | 8134 ft | 278 kts | 3° |
| 2026-05-06 14:38 | 24.67300 | 46.89494 | 7775 ft | 270 kts | 335° |
| 2026-05-06 14:38 | 24.68930 | 46.88565 | 7449 ft | 260 kts | 324° |
| 2026-05-06 14:39 | 24.70454 | 46.87532 | 7156 ft | 253 kts | 325° |
| 2026-05-06 14:39 | 24.71947 | 46.86546 | 6830 ft | 247 kts | 325° |
| 2026-05-06 14:39 | 24.73405 | 46.85611 | 6514 ft | 236 kts | 326° |
| 2026-05-06 14:39 | 24.74755 | 46.84756 | 6214 ft | 218 kts | 325° |
| 2026-05-06 14:40 | 24.76041 | 46.83943 | 5966 ft | 205 kts | 325° |
| 2026-05-06 14:40 | 24.76860 | 46.83422 | 5825 ft | 203 kts | 325° |
| 2026-05-06 14:40 | 24.78437 | 46.82422 | 5465 ft | 192 kts | 325° |
| 2026-05-06 14:40 | 24.79586 | 46.81693 | 5207 ft | 194 kts | 325° |
| 2026-05-06 14:41 | 24.80732 | 46.80966 | 4976 ft | 183 kts | 326° |
| 2026-05-06 14:41 | 24.81776 | 46.80306 | 4780 ft | 163 kts | 326° |
| 2026-05-06 14:41 | 24.82732 | 46.79701 | 4590 ft | 159 kts | 324° |
| 2026-05-06 14:41 | 24.83692 | 46.79090 | 4383 ft | 159 kts | 326° |
| 2026-05-06 14:42 | 24.84642 | 46.78487 | 4181 ft | 156 kts | 324° |
| 2026-05-06 14:42 | 24.85562 | 46.77904 | 3983 ft | 151 kts | 323° |
| 2026-05-06 14:42 | 24.86458 | 46.77335 | 3794 ft | 151 kts | 323° |
| 2026-05-06 14:42 | 24.87377 | 46.76752 | 3620 ft | 153 kts | 324° |
| 2026-05-06 14:43 | 24.88304 | 46.76162 | 3424 ft | 153 kts | 325° |
| 2026-05-06 14:43 | 24.89221 | 46.75579 | 3230 ft | 151 kts | 324° |
| 2026-05-06 14:43 | 24.90143 | 46.74994 | 3045 ft | 155 kts | 327° |
| 2026-05-06 14:43 | 24.91087 | 46.74418 | 2871 ft | 151 kts | 327° |
| 2026-05-06 14:44 | 24.91968 | 46.73855 | 2590 ft | 139 kts | 327° |
| 2026-05-06 14:44 | 24.92734 | 46.73318 | 2397 ft | 125 kts | 329° |
| 2026-05-06 14:44 | 24.93502 | 46.72827 | 2278 ft | 143 kts | 332° |
| 2026-05-06 14:45 | 24.95036 | 46.71879 | 2049 ft | 103 kts | 330° |
| 2026-05-06 14:45 | 24.95539 | 46.71559 | 2046 ft | 71 kts | 330° |
| 2026-05-06 14:45 | 24.95833 | 46.71371 | 2042 ft | 28 kts | 325° |
| 2026-05-06 14:45 | 24.95967 | 46.71220 | 2046 ft | 25 kts | 303° |
| 2026-05-06 14:46 | 24.96002 | 46.71124 | 2042 ft | 10 kts | 278° |
| 2026-05-06 14:46 | 24.95996 | 46.71048 | 2044 ft | 10 kts | 253° |
| 2026-05-06 14:46 | 24.95973 | 46.70985 | 2040 ft | 8 kts | 243° |
| 2026-05-06 14:46 | 24.95943 | 46.70928 | 2040 ft | 9 kts | 240° |
| 2026-05-06 14:47 | 24.95935 | 46.70913 | 2045 ft | 0 kts | 239° |
| 2026-05-06 14:48 | 24.95924 | 46.70894 | 2045 ft | 5 kts | 239° |
| 2026-05-06 14:48 | 24.95907 | 46.70861 | 2042 ft | 5 kts | 240° |
| 2026-05-06 14:48 | 24.95888 | 46.70825 | 2045 ft | 6 kts | 240° |
| 2026-05-06 14:48 | 24.95867 | 46.70785 | 2045 ft | 6 kts | 242° |
| 2026-05-06 14:49 | 24.95856 | 46.70739 | 2043 ft | 6 kts | 269° |
| 2026-05-06 14:49 | 24.95876 | 46.70696 | 2043 ft | 7 kts | 315° |
| 2026-05-06 14:49 | 24.95894 | 46.70679 | 2043 ft | 2 kts | 317° |
| 2026-05-06 14:49 | 24.95901 | 46.70664 | 2043 ft | 2 kts | 293° |
| 2026-05-06 14:50 | 24.95904 | 46.70645 | 2044 ft | 3 kts | 276° |
| 2026-05-06 14:50 | 24.95902 | 46.70617 | 2042 ft | 4 kts | 263° |
| 2026-05-06 14:50 | 24.95897 | 46.70584 | 2043 ft | 3 kts | 258° |
| 2026-05-06 14:50 | 24.95894 | 46.70570 | 2040 ft | 1 kts | 258° |
| 2026-05-06 14:51 | 24.95893 | 46.70562 | 2038 ft | 1 kts | 258° |
| 2026-05-06 14:51 | 24.95892 | 46.70558 | 2038 ft | 0 kts | 258° |